createdAt,value
2023-03-10T00:00:41.098Z,85328.13
2023-03-10T00:03:08.673Z,85249.50
2023-03-10T00:05:37.769Z,85273.41
2023-03-10T00:08:06.152Z,85324.00
2023-03-10T00:10:33.261Z,85297.94
2023-03-10T00:13:00.401Z,85317.19
2023-03-10T00:15:27.505Z,85318.69
2023-03-10T00:17:58.220Z,85313.88
2023-03-10T00:20:25.257Z,85291.28
2023-03-10T00:22:52.358Z,85317.97
2023-03-10T00:25:19.559Z,85331.16
2023-03-10T00:27:46.713Z,85273.66
2023-03-10T00:30:13.938Z,85282.47
2023-03-10T00:32:41.013Z,85273.53
2023-03-10T00:35:08.340Z,85259.97
2023-03-10T00:37:39.166Z,85307.16
2023-03-10T00:40:11.326Z,85243.56
2023-03-10T00:42:38.366Z,85264.06
2023-03-10T00:45:06.528Z,85280.44
2023-03-10T00:47:34.047Z,85286.00
2023-03-10T00:50:01.051Z,85265.50
2023-03-10T00:52:32.962Z,85260.09
2023-03-10T00:55:00.221Z,85256.03
2023-03-10T00:57:27.215Z,85279.28
2023-03-10T00:59:54.431Z,85296.31
2023-03-10T01:02:22.049Z,85212.91
2023-03-10T01:04:49.221Z,85216.97
2023-03-10T01:07:17.694Z,85291.44
2023-03-10T01:09:44.752Z,85250.41
2023-03-10T01:12:12.014Z,85305.09
2023-03-10T01:14:39.241Z,85145.09
2023-03-10T01:17:06.417Z,85242.19
2023-03-10T01:19:33.769Z,85307.78
2023-03-10T01:22:01.940Z,85272.19
2023-03-10T01:24:29.126Z,85165.63
2023-03-10T01:26:56.087Z,85225.09
2023-03-10T01:29:23.172Z,85246.84
2023-03-10T01:31:50.381Z,85293.31
2023-03-10T01:34:17.493Z,85208.59
2023-03-10T01:36:44.522Z,85281.72
2023-03-10T01:39:13.601Z,85240.06
2023-03-10T01:41:41.754Z,85266.69
2023-03-10T01:44:18.309Z,85287.28
2023-03-10T01:46:48.615Z,85192.25
2023-03-10T01:49:43.485Z,85270.78
2023-03-10T01:52:18.318Z,85283.03
2023-03-10T01:55:20.210Z,85285.88
2023-03-10T01:57:51.156Z,85288.63
2023-03-10T02:00:19.883Z,85229.84
2023-03-10T02:02:53.158Z,85288.59
2023-03-10T02:05:21.817Z,85292.72
2023-03-10T02:07:49.276Z,85253.03
2023-03-10T02:10:16.652Z,85186.00
2023-03-10T02:12:43.947Z,85246.84
2023-03-10T02:15:11.937Z,85244.13
2023-03-10T02:17:40.614Z,85282.38
2023-03-10T02:20:44.661Z,85218.19
2023-03-10T02:23:18.565Z,85259.19
2023-03-10T02:25:53.978Z,85289.97
2023-03-10T02:28:21.003Z,85287.22
2023-03-10T02:30:51.125Z,85261.97
2023-03-10T02:33:26.374Z,85212.03
2023-03-10T02:36:02.025Z,85262.66
2023-03-10T02:38:29.154Z,85266.84
2023-03-10T02:40:57.625Z,85208.03
2023-03-10T02:43:36.175Z,85291.41
2023-03-10T02:46:23.871Z,85219.63
2023-03-10T02:48:51.937Z,85267.50
2023-03-10T02:51:30.060Z,85283.19
2023-03-10T02:54:01.440Z,85220.31
2023-03-10T02:56:30.079Z,85305.16
2023-03-10T02:58:59.650Z,85249.75
2023-03-10T03:01:27.020Z,85198.41
2023-03-10T03:03:55.733Z,85287.22
2023-03-10T03:06:23.110Z,85276.31
2023-03-10T03:08:50.477Z,85268.06
2023-03-10T03:11:20.024Z,85246.16
2023-03-10T03:13:47.561Z,85246.19
2023-03-10T03:16:15.031Z,85226.31
2023-03-10T03:18:44.023Z,85206.53
2023-03-10T03:21:17.800Z,85272.19
2023-03-10T03:23:46.909Z,85274.16
2023-03-10T03:26:22.675Z,85278.91
2023-03-10T03:28:52.951Z,85278.22
2023-03-10T03:31:25.631Z,85234.53
2023-03-10T03:34:02.340Z,85216.16
2023-03-10T03:36:29.403Z,85175.13
2023-03-10T03:38:56.801Z,85247.63
2023-03-10T03:41:25.116Z,85258.59
2023-03-10T03:43:52.259Z,85271.56
2023-03-10T03:46:19.502Z,85205.13
2023-03-10T03:48:46.718Z,85170.34
2023-03-10T03:51:13.919Z,85274.84
2023-03-10T03:53:42.842Z,85201.72
2023-03-10T03:56:09.949Z,85261.09
2023-03-10T03:58:38.339Z,85259.09
2023-03-10T04:01:05.585Z,85240.66
2023-03-10T04:03:39.772Z,85221.56
2023-03-10T04:06:08.151Z,85266.00
2023-03-10T04:08:35.756Z,85171.00
2023-03-10T04:11:03.997Z,85226.34
2023-03-10T04:13:32.365Z,85235.84
2023-03-10T04:16:00.212Z,85265.22
2023-03-10T04:18:32.917Z,85188.00
2023-03-10T04:21:00.410Z,85250.78
2023-03-10T04:23:28.120Z,85258.34
2023-03-10T04:25:56.038Z,85259.72
2023-03-10T04:28:23.486Z,85166.78
2023-03-10T04:30:54.113Z,85248.66
2023-03-10T04:33:24.708Z,85253.47
2023-03-10T04:35:52.902Z,85140.72
2023-03-10T04:38:23.743Z,85155.72
2023-03-10T04:40:56.417Z,85209.63
2023-03-10T04:43:28.073Z,85227.41
2023-03-10T04:45:56.398Z,85187.03
2023-03-10T04:48:24.582Z,85150.91
2023-03-10T04:50:59.806Z,85208.88
2023-03-10T04:53:30.266Z,85172.13
2023-03-10T04:55:57.383Z,85159.13
2023-03-10T04:58:24.863Z,85243.06
2023-03-10T05:01:02.918Z,85236.25
2023-03-10T05:03:35.486Z,85193.84
2023-03-10T05:06:04.153Z,85148.09
2023-03-10T05:08:31.360Z,85245.00
2023-03-10T05:10:59.270Z,85251.88
2023-03-10T05:13:26.433Z,85253.84
2023-03-10T05:15:53.988Z,85233.44
2023-03-10T05:18:21.102Z,85204.06
2023-03-10T05:20:57.175Z,85181.47
2023-03-10T05:23:25.688Z,85165.25
2023-03-10T05:25:53.284Z,85197.88
2023-03-10T05:28:23.955Z,85184.88
2023-03-10T05:30:51.372Z,85253.75
2023-03-10T05:33:18.505Z,85036.75
2023-03-10T05:35:45.529Z,85251.03
2023-03-10T05:38:12.691Z,85145.94
2023-03-10T05:40:41.730Z,85182.72
2023-03-10T05:43:09.005Z,85235.88
2023-03-10T05:45:36.421Z,85244.84
2023-03-10T05:48:04.330Z,85198.38
2023-03-10T05:50:31.444Z,85221.63
2023-03-10T05:52:58.536Z,85227.72
2023-03-10T05:55:28.720Z,85228.47
2023-03-10T05:57:56.201Z,85175.78
2023-03-10T06:00:24.322Z,85253.53
2023-03-10T06:02:59.116Z,85245.34
2023-03-10T06:05:26.244Z,85139.47
2023-03-10T06:07:53.347Z,85239.75
2023-03-10T06:10:20.528Z,85185.16
2023-03-10T06:12:47.630Z,85213.75
2023-03-10T06:15:14.838Z,85107.91
2023-03-10T06:17:41.748Z,85230.69
2023-03-10T06:20:09.310Z,85171.22
2023-03-10T06:22:36.406Z,85167.81
2023-03-10T06:25:03.706Z,85252.94
2023-03-10T06:27:31.974Z,85216.00
2023-03-10T06:29:59.196Z,85176.44
2023-03-10T06:32:26.437Z,85175.56
2023-03-10T06:34:53.422Z,85185.06
2023-03-10T06:37:21.276Z,85202.25
2023-03-10T06:39:48.301Z,85220.47
2023-03-10T06:42:15.392Z,85208.81
2023-03-10T06:44:42.501Z,85125.41
2023-03-10T06:47:09.462Z,85156.63
2023-03-10T06:49:36.684Z,85189.22
2023-03-10T06:52:04.064Z,85162.50
2023-03-10T06:54:31.127Z,85212.13
2023-03-10T06:56:58.282Z,85225.75
2023-03-10T06:59:25.436Z,85182.06
2023-03-10T07:01:52.392Z,85206.59
2023-03-10T07:04:19.527Z,85172.41
2023-03-10T07:06:46.630Z,85210.69
2023-03-10T07:09:13.687Z,85242.75
2023-03-10T07:11:41.219Z,85250.25
2023-03-10T07:14:08.197Z,85090.66
2023-03-10T07:16:35.345Z,85226.13
2023-03-10T07:19:02.439Z,85217.69
2023-03-10T07:21:29.748Z,85210.16
2023-03-10T07:23:57.001Z,85207.31
2023-03-10T07:26:24.128Z,85233.06
2023-03-10T07:28:51.238Z,85144.38
2023-03-10T07:31:18.443Z,85217.91
2023-03-10T07:33:45.974Z,85140.06
2023-03-10T07:36:15.913Z,85208.09
2023-03-10T07:38:43.197Z,85255.81
2023-03-10T07:41:12.008Z,85236.38
2023-03-10T07:43:39.185Z,85196.72
2023-03-10T07:46:08.088Z,85111.75
2023-03-10T07:48:35.230Z,85076.94
2023-03-10T07:51:02.446Z,85201.47
2023-03-10T07:53:30.852Z,85240.22
2023-03-10T07:55:57.986Z,85234.72
2023-03-10T07:58:25.426Z,85158.53
2023-03-10T08:00:57.019Z,85206.50
2023-03-10T08:03:25.584Z,85028.75
2023-03-10T08:05:52.969Z,85177.84
2023-03-10T08:08:20.274Z,85208.28
2023-03-10T08:10:47.502Z,85180.09
2023-03-10T08:13:14.919Z,85148.06
2023-03-10T08:15:42.447Z,85151.72
2023-03-10T08:18:09.827Z,85219.69
2023-03-10T08:20:37.318Z,85118.97
2023-03-10T08:23:05.048Z,85173.41
2023-03-10T08:25:32.390Z,85169.06
2023-03-10T08:27:59.692Z,85170.34
2023-03-10T08:30:26.814Z,85185.25
2023-03-10T08:32:55.313Z,85191.03
2023-03-10T08:35:23.754Z,85156.81
2023-03-10T08:37:55.158Z,85138.38
2023-03-10T08:40:22.629Z,85130.09
2023-03-10T08:42:49.723Z,85199.25
2023-03-10T08:45:16.863Z,85142.47
2023-03-10T08:47:44.150Z,85215.94
2023-03-10T08:50:15.084Z,85193.34
2023-03-10T08:52:42.339Z,85195.94
2023-03-10T08:55:11.445Z,85168.00
2023-03-10T08:57:38.796Z,85060.38
2023-03-10T09:00:07.330Z,84995.28
2023-03-10T09:02:34.591Z,85125.19
2023-03-10T09:05:01.617Z,84999.31
2023-03-10T09:07:28.687Z,85007.16
2023-03-10T09:09:55.882Z,85176.22
2023-03-10T09:12:22.979Z,85100.53
2023-03-10T09:14:50.264Z,85130.94
2023-03-10T09:17:17.483Z,85064.38
2023-03-10T09:19:44.898Z,85157.38
2023-03-10T09:22:12.037Z,85166.69
2023-03-10T09:24:39.252Z,85149.59
2023-03-10T09:27:06.342Z,85194.53
2023-03-10T09:29:43.178Z,85150.28
2023-03-10T09:32:11.255Z,85068.03
2023-03-10T09:34:38.457Z,85135.09
2023-03-10T09:37:07.475Z,85115.31
2023-03-10T09:39:35.465Z,85168.41
2023-03-10T09:42:26.003Z,85169.81
2023-03-10T09:45:06.737Z,85112.69
2023-03-10T09:48:05.000Z,85112.38
2023-03-10T09:50:39.222Z,85128.69
2023-03-10T09:53:27.906Z,85150.41
2023-03-10T09:55:55.023Z,85139.91
2023-03-10T09:58:32.864Z,85047.00
2023-03-10T10:01:01.360Z,84954.72
2023-03-10T10:03:42.954Z,85065.66
2023-03-10T10:06:22.742Z,85091.59
2023-03-10T10:09:04.950Z,85115.47
2023-03-10T10:11:36.487Z,85084.19
2023-03-10T10:14:29.448Z,85135.56
2023-03-10T10:17:05.290Z,85127.47
2023-03-10T10:19:34.872Z,85048.34
2023-03-10T10:22:29.157Z,85130.44
2023-03-10T10:25:24.441Z,85131.03
2023-03-10T10:27:57.186Z,85074.53
2023-03-10T10:30:39.002Z,85114.56
2023-03-10T10:33:11.868Z,84926.09
2023-03-10T10:36:02.760Z,85117.69
2023-03-10T10:38:31.847Z,85045.13
2023-03-10T10:41:10.432Z,84934.34
2023-03-10T10:43:45.812Z,85076.66
2023-03-10T10:46:16.280Z,85114.13
2023-03-10T10:48:48.570Z,85012.09
2023-03-10T10:51:29.011Z,85054.19
2023-03-10T10:54:02.462Z,85069.28
2023-03-10T10:56:30.587Z,85082.00
2023-03-10T10:59:22.117Z,84907.47
2023-03-10T11:01:53.768Z,85083.41
2023-03-10T11:04:22.348Z,84931.06
2023-03-10T11:06:50.887Z,85061.47
2023-03-10T11:09:20.872Z,85000.84
2023-03-10T11:12:06.030Z,85065.41
2023-03-10T11:14:44.702Z,85071.34
2023-03-10T11:17:30.240Z,85058.75
2023-03-10T11:20:23.960Z,85062.03
2023-03-10T11:22:56.769Z,85064.94
2023-03-10T11:25:47.821Z,85060.88
2023-03-10T11:28:44.055Z,85048.47
2023-03-10T11:31:22.979Z,85050.88
2023-03-10T11:33:59.377Z,85050.06
2023-03-10T11:36:56.447Z,85048.41
2023-03-10T11:39:39.367Z,85033.13
2023-03-10T11:42:38.437Z,85005.63
2023-03-10T11:45:31.187Z,85027.66
2023-03-10T11:48:03.454Z,84992.09
2023-03-10T11:51:18.079Z,84973.94
2023-03-10T11:53:50.387Z,84975.19
2023-03-10T11:56:21.116Z,84838.97
2023-03-10T11:59:22.136Z,84984.44
2023-03-10T12:02:03.288Z,85010.81
2023-03-10T12:04:39.487Z,85025.53
2023-03-10T12:07:27.638Z,85016.06
2023-03-10T12:10:25.949Z,85006.59
2023-03-10T12:12:54.389Z,84859.22
2023-03-10T12:15:25.584Z,84995.75
2023-03-10T12:17:54.118Z,84982.94
2023-03-10T12:20:21.142Z,84997.03
2023-03-10T12:22:55.871Z,84932.31
2023-03-10T12:25:29.127Z,84989.59
2023-03-10T12:28:17.928Z,84975.22
2023-03-10T12:30:51.267Z,84990.63
2023-03-10T12:33:42.710Z,84977.25
2023-03-10T12:36:34.325Z,84979.31
2023-03-10T12:39:26.761Z,84978.91
2023-03-10T12:41:57.361Z,84981.63
2023-03-10T12:44:48.725Z,84981.97
2023-03-10T12:47:35.431Z,84979.97
2023-03-10T12:50:05.609Z,84961.13
2023-03-10T12:52:44.905Z,84962.13
2023-03-10T12:55:15.258Z,84974.34
2023-03-10T12:57:57.714Z,84907.25
2023-03-10T13:00:41.347Z,84968.56
2023-03-10T13:03:11.569Z,84949.22
2023-03-10T13:05:56.450Z,84897.53
2023-03-10T13:08:33.668Z,84952.44
2023-03-10T13:11:00.972Z,84953.25
2023-03-10T13:13:33.255Z,84907.41
2023-03-10T13:16:06.279Z,84839.63
2023-03-10T13:18:35.409Z,84827.25
2023-03-10T13:21:02.424Z,84944.00
2023-03-10T13:23:34.649Z,84943.50
2023-03-10T13:26:07.545Z,84929.16
2023-03-10T13:28:36.027Z,84854.41
2023-03-10T13:31:19.817Z,84940.03
2023-03-10T13:33:53.196Z,84935.72
2023-03-10T13:36:33.342Z,84855.91
2023-03-10T13:39:25.639Z,84912.59
2023-03-10T13:41:57.352Z,84915.88
2023-03-10T13:44:31.786Z,84928.69
2023-03-10T13:47:01.070Z,84869.94
2023-03-10T13:49:33.195Z,84854.63
2023-03-10T13:52:01.584Z,84863.94
2023-03-10T13:54:37.343Z,84840.06
2023-03-10T13:57:23.002Z,84905.19
2023-03-10T13:59:50.930Z,84841.03
2023-03-10T14:02:30.382Z,84882.09
2023-03-10T14:04:58.620Z,84808.63
2023-03-10T14:07:34.302Z,84908.94
2023-03-10T14:10:03.981Z,84891.88
2023-03-10T14:12:40.320Z,84666.63
2023-03-10T14:15:29.013Z,84808.94
2023-03-10T14:18:08.106Z,84884.94
2023-03-10T14:20:36.936Z,84881.09
2023-03-10T14:23:18.966Z,84899.06
2023-03-10T14:25:57.434Z,84855.72
2023-03-10T14:28:32.075Z,84885.50
2023-03-10T14:31:00.817Z,84875.78
2023-03-10T14:33:28.345Z,84837.44
2023-03-10T14:35:55.557Z,84793.63
2023-03-10T14:38:25.566Z,84754.69
2023-03-10T14:40:55.175Z,84870.75
2023-03-10T14:43:25.802Z,84842.31
2023-03-10T14:45:55.533Z,84836.88
2023-03-10T14:48:29.630Z,84821.66
2023-03-10T14:50:57.198Z,84857.59
2023-03-10T14:53:28.300Z,84827.66
2023-03-10T14:55:57.298Z,84864.59
2023-03-10T14:58:38.225Z,84866.50
2023-03-10T15:01:06.118Z,84841.69
2023-03-10T15:03:33.126Z,84809.25
2023-03-10T15:06:00.278Z,84767.25
2023-03-10T15:08:30.356Z,84648.75
2023-03-10T15:10:57.721Z,84786.19
2023-03-10T15:13:25.219Z,84804.53
2023-03-10T15:15:55.478Z,84830.47
2023-03-10T15:18:23.953Z,84827.41
2023-03-10T15:20:51.135Z,84785.22
2023-03-10T15:23:20.143Z,84823.38
2023-03-10T15:25:48.017Z,84836.81
2023-03-10T15:28:15.211Z,84835.13
2023-03-10T15:30:42.486Z,84782.84
2023-03-10T15:33:10.950Z,84760.38
2023-03-10T15:35:39.428Z,84820.09
2023-03-10T15:38:06.874Z,84781.13
2023-03-10T15:40:35.361Z,84785.03
2023-03-10T15:43:02.917Z,84819.94
2023-03-10T15:45:31.095Z,84817.28
2023-03-10T15:47:59.025Z,84680.53
2023-03-10T15:50:26.651Z,84800.59
2023-03-10T15:52:56.027Z,84730.47
2023-03-10T15:55:24.569Z,84764.22
2023-03-10T15:57:52.486Z,84671.97
2023-03-10T16:00:21.885Z,84818.81
2023-03-10T16:02:50.040Z,84771.38
2023-03-10T16:05:18.112Z,84731.06
2023-03-10T16:07:45.483Z,84539.91
2023-03-10T16:10:18.686Z,84825.69
2023-03-10T16:12:46.262Z,84592.84
2023-03-10T16:15:17.585Z,84768.19
2023-03-10T16:17:45.604Z,84743.09
2023-03-10T16:20:14.035Z,84765.28
2023-03-10T16:22:43.239Z,84795.03
2023-03-10T16:25:21.336Z,84789.00
2023-03-10T16:27:48.820Z,84810.38
2023-03-10T16:30:17.863Z,84791.81
2023-03-10T16:32:48.988Z,84792.22
2023-03-10T16:35:17.669Z,84799.53
2023-03-10T16:37:44.700Z,84753.41
2023-03-10T16:40:12.500Z,84805.25
2023-03-10T16:42:43.397Z,84760.50
2023-03-10T16:45:11.241Z,84719.88
2023-03-10T16:47:38.506Z,84730.31
2023-03-10T16:50:06.033Z,84800.72
2023-03-10T16:52:39.637Z,84756.06
2023-03-10T16:55:08.994Z,84774.66
2023-03-10T16:57:36.493Z,84742.03
2023-03-10T17:00:05.723Z,84786.38
2023-03-10T17:02:32.729Z,84679.66
2023-03-10T17:04:59.708Z,84764.38
2023-03-10T17:07:27.238Z,84771.88
2023-03-10T17:09:54.236Z,84775.16
2023-03-10T17:12:27.312Z,84764.75
2023-03-10T17:14:55.824Z,84700.91
2023-03-10T17:17:22.793Z,84757.75
2023-03-10T17:19:53.042Z,84717.41
2023-03-10T17:22:20.151Z,84767.13
2023-03-10T17:24:53.806Z,84694.59
2023-03-10T17:27:20.903Z,84701.28
2023-03-10T17:29:48.030Z,84790.81
2023-03-10T17:32:15.338Z,84728.66
2023-03-10T17:34:43.390Z,84776.75
2023-03-10T17:37:10.394Z,84799.41
2023-03-10T17:39:37.460Z,84774.13
2023-03-10T17:42:04.563Z,84675.06
2023-03-10T17:44:31.702Z,84736.09
2023-03-10T17:46:58.851Z,84779.56
2023-03-10T17:49:25.855Z,84604.59
2023-03-10T17:51:52.886Z,84769.88
2023-03-10T17:54:22.470Z,84749.56
2023-03-10T17:56:50.417Z,84778.81
2023-03-10T17:59:18.059Z,84584.09
2023-03-10T18:01:46.062Z,84734.44
2023-03-10T18:04:13.752Z,84797.13
2023-03-10T18:06:41.838Z,84692.81
2023-03-10T18:09:14.733Z,84740.78
2023-03-10T18:11:41.940Z,84775.75
2023-03-10T18:14:09.098Z,84742.28
2023-03-10T18:16:39.736Z,84768.69
2023-03-10T18:19:10.507Z,84562.66
2023-03-10T18:21:38.935Z,84756.16
2023-03-10T18:24:06.721Z,84665.50
2023-03-10T18:26:35.624Z,84697.03
2023-03-10T18:29:02.590Z,84733.59
2023-03-10T18:31:32.393Z,84716.38
2023-03-10T18:34:00.239Z,84714.88
2023-03-10T18:36:28.294Z,84730.44
2023-03-10T18:38:56.207Z,84690.88
2023-03-10T18:41:26.498Z,84688.25
2023-03-10T18:43:53.704Z,84586.09
2023-03-10T18:46:21.194Z,84707.22
2023-03-10T18:48:48.887Z,84649.25
2023-03-10T18:51:16.005Z,84668.16
2023-03-10T18:53:43.190Z,84696.41
2023-03-10T18:56:10.340Z,84651.81
2023-03-10T18:58:37.488Z,84747.47
2023-03-10T19:01:10.892Z,84671.06
2023-03-10T19:03:38.512Z,84550.22
2023-03-10T19:06:06.739Z,84741.72
2023-03-10T19:08:38.271Z,84741.13
2023-03-10T19:11:07.087Z,84650.38
2023-03-10T19:13:35.077Z,84707.09
2023-03-10T19:16:09.886Z,84561.53
2023-03-10T19:18:37.449Z,84737.88
2023-03-10T19:21:05.035Z,84669.31
2023-03-10T19:23:34.170Z,84656.25
2023-03-10T19:26:02.195Z,84732.69
2023-03-10T19:28:29.500Z,84690.88
2023-03-10T19:30:56.773Z,84717.84
2023-03-10T19:33:24.103Z,84718.50
2023-03-10T19:36:00.422Z,84666.81
2023-03-10T19:38:28.402Z,84627.81
2023-03-10T19:40:55.568Z,84644.19
2023-03-10T19:43:22.714Z,84684.53
2023-03-10T19:45:49.832Z,84699.75
2023-03-10T19:48:17.050Z,84530.13
2023-03-10T19:50:44.007Z,84622.50
2023-03-10T19:53:11.155Z,84657.03
2023-03-10T19:55:38.350Z,84637.88
2023-03-10T19:58:05.490Z,84597.06
2023-03-10T20:00:36.229Z,84642.75
2023-03-10T20:03:03.843Z,84659.56
2023-03-10T20:05:31.276Z,84671.34
2023-03-10T20:07:58.402Z,84649.78
2023-03-10T20:10:25.496Z,84595.03
2023-03-10T20:12:52.856Z,84457.28
2023-03-10T20:15:20.122Z,84424.31
2023-03-10T20:17:47.407Z,84495.91
2023-03-10T20:20:15.468Z,84658.66
2023-03-10T20:22:45.753Z,84669.09
2023-03-10T20:25:16.153Z,84625.69
2023-03-10T20:27:43.961Z,84599.63
2023-03-10T20:30:16.798Z,84533.25
2023-03-10T20:32:47.127Z,84645.88
2023-03-10T20:35:15.094Z,84639.34
2023-03-10T20:37:42.806Z,84569.81
2023-03-10T20:40:13.094Z,84636.91
2023-03-10T20:42:40.501Z,84641.56
2023-03-10T20:45:10.614Z,84620.28
2023-03-10T20:47:38.054Z,84597.19
2023-03-10T20:50:10.193Z,84641.69
2023-03-10T20:52:39.764Z,84640.56
2023-03-10T20:55:08.282Z,84635.25
2023-03-10T20:57:35.344Z,84640.63
2023-03-10T21:00:02.826Z,84555.97
2023-03-10T21:02:29.827Z,84585.91
2023-03-10T21:04:56.778Z,84622.50
2023-03-10T21:07:23.870Z,84595.22
2023-03-10T21:09:51.026Z,84582.94
2023-03-10T21:12:19.090Z,84586.00
2023-03-10T21:14:46.430Z,84578.81
2023-03-10T21:17:13.716Z,84604.06
2023-03-10T21:19:40.868Z,84585.69
2023-03-10T21:22:08.158Z,84552.53
2023-03-10T21:24:35.104Z,84491.63
2023-03-10T21:27:02.246Z,84575.03
2023-03-10T21:29:29.406Z,84559.78
2023-03-10T21:31:56.611Z,84474.16
2023-03-10T21:34:23.674Z,84581.63
2023-03-10T21:36:50.862Z,84528.97
2023-03-10T21:39:18.460Z,84568.31
2023-03-10T21:41:45.699Z,84580.22
2023-03-10T21:44:12.790Z,84558.50
2023-03-10T21:46:40.188Z,84557.16
2023-03-10T21:49:07.627Z,84494.06
2023-03-10T21:51:35.525Z,84545.84
2023-03-10T21:54:03.509Z,84450.69
2023-03-10T21:56:31.366Z,84559.09
2023-03-10T21:58:58.460Z,84540.00
2023-03-10T22:01:27.084Z,84557.28
2023-03-10T22:03:54.288Z,84519.56
2023-03-10T22:06:25.474Z,84463.88
2023-03-10T22:08:52.599Z,84545.06
2023-03-10T22:11:19.643Z,84539.28
2023-03-10T22:13:46.760Z,84528.38
2023-03-10T22:16:17.668Z,84537.81
2023-03-10T22:18:45.522Z,84498.50
2023-03-10T22:21:12.559Z,84479.38
2023-03-10T22:23:40.020Z,84463.41
2023-03-10T22:26:08.206Z,84444.44
2023-03-10T22:28:35.198Z,84510.63
2023-03-10T22:31:05.988Z,84470.34
2023-03-10T22:33:34.269Z,84462.50
2023-03-10T22:36:06.440Z,84460.91
2023-03-10T22:38:33.640Z,84473.13
2023-03-10T22:41:01.182Z,84437.72
2023-03-10T22:43:28.366Z,84429.44
2023-03-10T22:45:59.978Z,84470.16
2023-03-10T22:48:26.958Z,84419.34
2023-03-10T22:50:54.107Z,84427.81
2023-03-10T22:53:21.241Z,84451.22
2023-03-10T22:55:49.829Z,84454.31
2023-03-10T22:58:16.733Z,84456.16
2023-03-10T23:00:44.703Z,84417.69
2023-03-10T23:03:13.899Z,84411.63
2023-03-10T23:05:41.819Z,84418.06
2023-03-10T23:08:09.145Z,84442.31
2023-03-10T23:10:37.924Z,84431.09
2023-03-10T23:13:08.225Z,84401.69
2023-03-10T23:15:37.460Z,84458.44
2023-03-10T23:18:05.416Z,84456.41
2023-03-10T23:20:36.617Z,84421.56
2023-03-10T23:23:05.899Z,84446.56
2023-03-10T23:25:36.737Z,84464.38
2023-03-10T23:28:04.902Z,84423.22
2023-03-10T23:30:32.121Z,84375.16
2023-03-10T23:32:59.671Z,84441.19
2023-03-10T23:35:32.512Z,84443.44
2023-03-10T23:38:00.782Z,84406.13
2023-03-10T23:40:29.888Z,84431.56
2023-03-10T23:42:59.200Z,84411.00
2023-03-10T23:45:28.202Z,84361.25
2023-03-10T23:47:56.172Z,84420.38
2023-03-10T23:50:27.809Z,84435.00
2023-03-10T23:52:55.541Z,84383.00
2023-03-10T23:55:29.500Z,84453.28
2023-03-10T23:57:56.691Z,84501.75
